Time;durP1;ratioP1;P1;durP2;ratioP2;P2;SDS_P1;SDS_P2;PMS_P1;PMS_P2;Temp;Humidity;BMP_temperature;BMP_pressure;BME280_temperature;BME280_humidity;BME280_pressure;Samples;Min_cycle;Max_cycle;Signal;HPM_P1;HPM_P2
2021/04/14 00:00:33;;;;;;;8.33;2.75;;;6.20;99.90;;;;;;1885558;75;21081;-68
2021/04/14 00:03:03;;;;;;;10.93;2.70;;;6.20;99.90;;;;;;1884805;74;21054;-67
2021/04/14 00:05:36;;;;;;;10.13;2.80;;;6.10;99.90;;;;;;1888331;74;21623;-69
2021/04/14 00:08:05;;;;;;;8.60;2.72;;;6.10;99.90;;;;;;1884910;75;21211;-69
2021/04/14 00:10:35;;;;;;;7.83;2.47;;;6.10;99.90;;;;;;1885430;75;21062;-67
2021/04/14 00:13:05;;;;;;;7.03;2.87;;;6.00;99.90;;;;;;1885722;74;21171;-69
2021/04/14 00:15:35;;;;;;;6.95;2.10;;;6.10;99.90;;;;;;1882763;75;21172;-69
2021/04/14 00:18:04;;;;;;;7.95;2.98;;;6.00;99.90;;;;;;1881488;74;22317;-68
2021/04/14 00:20:31;;;;;;;10.65;2.67;;;6.00;99.90;;;;;;1885586;75;21086;-67
2021/04/14 00:22:59;;;;;;;9.65;2.35;;;5.90;99.90;;;;;;1886880;74;21101;-68
2021/04/14 00:25:30;;;;;;;8.63;2.70;;;5.90;99.90;;;;;;1882682;74;21578;-69
2021/04/14 00:27:58;;;;;;;9.45;2.90;;;6.00;99.90;;;;;;1881568;74;21218;-68
2021/04/14 00:30:27;;;;;;;13.68;2.80;;;5.90;99.90;;;;;;1888437;75;21093;-69
2021/04/14 00:32:55;;;;;;;11.15;3.25;;;5.90;99.90;;;;;;1887321;74;21524;-69
2021/04/14 00:35:26;;;;;;;13.13;3.02;;;5.90;99.90;;;;;;1883417;75;21113;-69
2021/04/14 00:37:54;;;;;;;10.10;2.62;;;5.90;99.90;;;;;;1885010;74;22201;-69
2021/04/14 00:40:33;;;;;;;9.45;2.95;;;5.90;99.90;;;;;;1889617;74;21101;-67
2021/04/14 00:43:01;;;;;;;12.82;3.52;;;5.90;99.90;;;;;;1885724;74;21060;-68
2021/04/14 00:45:30;;;;;;;7.47;3.25;;;6.00;99.90;;;;;;1881199;75;21092;-69
2021/04/14 00:47:57;;;;;;;9.15;3.22;;;5.90;99.90;;;;;;1883845;74;21092;-69
2021/04/14 00:50:27;;;;;;;11.95;3.52;;;5.90;99.90;;;;;;1887935;75;21104;-67
2021/04/14 00:52:55;;;;;;;10.45;2.60;;;5.90;99.90;;;;;;1886623;74;21078;-69
2021/04/14 00:55:26;;;;;;;10.30;3.10;;;5.90;99.90;;;;;;1883997;74;21176;-67
2021/04/14 00:57:54;;;;;;;8.55;2.90;;;6.00;99.90;;;;;;1884311;74;21176;-70
2021/04/14 01:00:33;;;;;;;13.05;3.08;;;5.90;99.90;;;;;;1886885;75;21151;-68
2021/04/14 01:03:02;;;;;;;9.83;3.12;;;5.90;99.90;;;;;;1882364;75;21665;-68
2021/04/14 01:05:32;;;;;;;12.90;3.05;;;6.00;99.90;;;;;;1886649;75;21086;-68
2021/04/14 01:08:00;;;;;;;15.48;3.50;;;6.10;99.90;;;;;;1883062;74;21137;-69
2021/04/14 01:10:27;;;;;;;15.10;3.42;;;6.20;99.90;;;;;;1878635;74;21634;-67
2021/04/14 01:12:55;;;;;;;12.90;3.65;;;6.20;99.90;;;;;;1886455;74;21164;-68
2021/04/14 01:15:28;;;;;;;13.32;3.65;;;6.20;99.90;;;;;;1889403;75;21125;-69
2021/04/14 01:17:56;;;;;;;11.85;3.27;;;6.30;99.90;;;;;;1879610;74;21171;-69
2021/04/14 01:20:24;;;;;;;11.85;3.17;;;6.30;99.90;;;;;;1890237;74;21822;-68
2021/04/14 01:22:51;;;;;;;13.48;3.30;;;6.30;99.90;;;;;;1886838;75;22112;-68
2021/04/14 01:25:22;;;;;;;8.88;3.10;;;6.20;99.90;;;;;;1886102;74;21043;-69
2021/04/14 01:27:49;;;;;;;12.53;3.60;;;6.30;99.90;;;;;;1888308;75;21125;-67
2021/04/14 01:30:20;;;;;;;11.43;3.20;;;6.30;99.90;;;;;;1891610;75;21015;-68
2021/04/14 01:32:47;;;;;;;13.08;3.20;;;6.30;99.90;;;;;;1884625;75;21163;-68
2021/04/14 01:35:16;;;;;;;12.13;2.85;;;6.20;99.90;;;;;;1888625;75;21159;-69
2021/04/14 01:37:43;;;;;;;15.13;3.35;;;6.20;99.90;;;;;;1892353;74;21724;-68
2021/04/14 01:40:11;;;;;;;9.70;3.45;;;6.20;99.90;;;;;;1884353;74;21058;-69
2021/04/14 01:42:39;;;;;;;14.00;3.80;;;6.10;99.90;;;;;;1887394;75;21085;-69
2021/04/14 01:45:09;;;;;;;16.77;3.50;;;6.10;99.90;;;;;;1882511;75;21143;-68
2021/04/14 01:47:36;;;;;;;13.68;3.65;;;6.20;99.90;;;;;;1879990;74;21611;-69
2021/04/14 01:50:06;;;;;;;10.40;3.27;;;6.20;99.90;;;;;;1880280;74;21148;-67
2021/04/14 01:52:34;;;;;;;11.50;3.08;;;6.20;99.90;;;;;;1886668;75;21042;-67
2021/04/14 01:55:03;;;;;;;10.20;3.12;;;6.20;99.90;;;;;;1885084;75;21105;-69
2021/04/14 01:57:31;;;;;;;10.60;3.40;;;6.20;99.90;;;;;;1884928;74;21362;-68
2021/04/14 01:59:58;;;;;;;10.38;3.37;;;6.20;99.90;;;;;;1888049;74;21097;-69
2021/04/14 02:02:26;;;;;;;12.53;3.45;;;6.20;99.90;;;;;;1883588;74;21535;-69
2021/04/14 02:04:53;;;;;;;9.85;3.10;;;6.20;99.90;;;;;;1881933;74;21562;-69
2021/04/14 02:07:21;;;;;;;13.83;3.47;;;6.10;99.90;;;;;;1881631;74;21148;-68
2021/04/14 02:09:48;;;;;;;11.30;3.52;;;6.10;99.90;;;;;;1887261;75;21187;-69
2021/04/14 02:12:16;;;;;;;10.18;3.22;;;6.10;99.90;;;;;;1883977;74;21097;-69
2021/04/14 02:14:43;;;;;;;10.95;3.02;;;6.10;99.90;;;;;;1884580;75;22229;-69
2021/04/14 02:17:11;;;;;;;12.88;3.12;;;6.10;99.90;;;;;;1889372;74;21117;-69
2021/04/14 02:19:38;;;;;;;10.60;3.15;;;6.10;99.90;;;;;;1880583;75;21417;-68
2021/04/14 02:22:06;;;;;;;8.93;3.45;;;6.00;99.90;;;;;;1887608;74;21074;-69
2021/04/14 02:24:33;;;;;;;11.25;3.30;;;6.10;99.90;;;;;;1887421;74;21167;-68
2021/04/14 02:27:01;;;;;;;13.62;3.25;;;6.00;99.90;;;;;;1885742;74;21070;-69
2021/04/14 02:29:28;;;;;;;14.38;3.17;;;6.20;99.90;;;;;;1882847;75;21145;-69
2021/04/14 02:31:56;;;;;;;12.15;3.60;;;6.10;99.90;;;;;;1883590;74;21099;-69
2021/04/14 02:34:23;;;;;;;14.38;3.80;;;6.20;99.90;;;;;;1884030;75;21238;-69
2021/04/14 02:36:51;;;;;;;10.03;3.27;;;6.20;99.90;;;;;;1886942;75;21101;-69
2021/04/14 02:39:18;;;;;;;12.13;3.30;;;6.20;99.90;;;;;;1887290;75;22160;-68
2021/04/14 02:41:47;;;;;;;10.70;3.55;;;6.20;99.90;;;;;;1886772;75;21174;-68
2021/04/14 02:44:15;;;;;;;18.00;3.92;;;6.20;99.90;;;;;;1880277;74;21054;-69
2021/04/14 02:46:42;;;;;;;18.27;4.25;;;6.20;99.90;;;;;;1883974;75;22101;-68
2021/04/14 02:49:10;;;;;;;14.03;3.70;;;6.20;99.90;;;;;;1881980;74;21080;-69
2021/04/14 02:51:37;;;;;;;11.88;3.70;;;6.20;99.90;;;;;;1883698;74;21619;-69
2021/04/14 02:54:05;;;;;;;11.55;4.12;;;6.10;99.90;;;;;;1884022;74;21097;-69
2021/04/14 02:56:33;;;;;;;15.18;4.05;;;6.10;99.90;;;;;;1882230;74;21179;-68
2021/04/14 02:59:01;;;;;;;14.03;3.33;;;6.10;99.90;;;;;;1890739;75;21062;-68
2021/04/14 03:01:29;;;;;;;11.33;3.92;;;6.10;99.90;;;;;;1884549;74;21109;-67
2021/04/14 03:03:57;;;;;;;15.35;3.95;;;6.20;99.90;;;;;;1879319;74;21299;-67
2021/04/14 03:06:24;;;;;;;11.63;3.30;;;6.10;99.90;;;;;;1885527;75;22381;-69
2021/04/14 03:08:52;;;;;;;9.80;3.77;;;6.10;99.90;;;;;;1879512;74;21172;-69
2021/04/14 03:11:20;;;;;;;13.13;3.80;;;6.10;99.90;;;;;;1885224;74;21121;-70
2021/04/14 03:13:47;;;;;;;12.53;3.55;;;6.10;99.90;;;;;;1883329;75;21142;-69
2021/04/14 03:16:15;;;;;;;12.65;4.05;;;6.00;99.90;;;;;;1886302;74;22232;-68
2021/04/14 03:18:43;;;;;;;11.03;3.50;;;6.00;99.90;;;;;;1886343;75;22446;-69
2021/04/14 03:21:10;;;;;;;9.58;3.55;;;5.90;99.90;;;;;;1888173;74;21164;-70
2021/04/14 03:23:37;;;;;;;8.98;3.12;;;5.90;99.90;;;;;;1884826;74;21141;-70
2021/04/14 03:26:05;;;;;;;17.65;3.47;;;5.90;99.90;;;;;;1881292;75;21101;-69
2021/04/14 03:28:33;;;;;;;11.65;3.90;;;5.80;99.90;;;;;;1882834;74;21855;-69
2021/04/14 03:31:00;;;;;;;9.35;3.45;;;5.80;99.90;;;;;;1885266;75;21074;-67
2021/04/14 03:33:28;;;;;;;9.83;3.02;;;5.80;99.90;;;;;;1883271;75;21170;-68
2021/04/14 03:35:55;;;;;;;14.95;3.77;;;5.80;99.90;;;;;;1886170;75;21625;-70
2021/04/14 03:38:23;;;;;;;17.35;3.98;;;5.80;99.90;;;;;;1886443;74;21141;-69
2021/04/14 03:40:50;;;;;;;11.63;3.60;;;5.80;99.90;;;;;;1886609;75;21179;-69
2021/04/14 03:43:18;;;;;;;14.65;3.85;;;5.80;99.90;;;;;;1887790;74;21155;-68
2021/04/14 03:45:48;;;;;;;10.35;3.58;;;5.80;99.90;;;;;;1886425;74;21105;-70
2021/04/14 03:48:15;;;;;;;9.28;3.70;;;5.80;99.90;;;;;;1889882;75;21137;-68
2021/04/14 03:50:43;;;;;;;7.28;3.15;;;5.70;99.90;;;;;;1883379;74;21085;-67
2021/04/14 03:53:24;;;;;;;9.98;3.25;;;5.70;99.90;;;;;;1888522;75;21058;-69
2021/04/14 03:55:54;;;;;;;9.95;3.50;;;5.60;99.90;;;;;;1878898;75;21634;-69
2021/04/14 03:58:23;;;;;;;10.25;3.45;;;5.60;99.90;;;;;;1882135;74;21641;-69
2021/04/14 04:00:55;;;;;;;10.43;3.27;;;5.60;99.90;;;;;;1886292;74;21105;-69
2021/04/14 04:03:24;;;;;;;11.55;3.58;;;5.50;99.90;;;;;;1881028;74;21198;-68
2021/04/14 04:05:52;;;;;;;12.30;3.57;;;5.50;99.90;;;;;;1881978;75;21133;-67
2021/04/14 04:08:20;;;;;;;8.53;3.45;;;5.50;99.90;;;;;;1889537;74;21132;-68
2021/04/14 04:10:47;;;;;;;11.38;3.87;;;5.60;99.90;;;;;;1884655;74;21507;-66
2021/04/14 04:13:16;;;;;;;10.82;3.75;;;5.60;99.90;;;;;;1881976;75;21050;-67
2021/04/14 04:15:45;;;;;;;18.00;3.60;;;5.50;99.90;;;;;;1883242;74;21116;-68
2021/04/14 04:18:13;;;;;;;7.05;2.83;;;5.50;99.90;;;;;;1889340;74;21180;-68
2021/04/14 04:20:40;;;;;;;9.65;3.70;;;5.50;99.90;;;;;;1883903;74;21133;-68
2021/04/14 04:23:09;;;;;;;10.80;3.20;;;5.50;99.90;;;;;;1885614;75;21122;-67
2021/04/14 04:25:37;;;;;;;10.95;3.25;;;5.50;99.90;;;;;;1878244;74;21042;-68
2021/04/14 04:28:06;;;;;;;8.10;3.15;;;5.50;99.90;;;;;;1882094;74;21185;-66
2021/04/14 04:30:35;;;;;;;15.38;3.12;;;5.50;99.90;;;;;;1892856;74;21178;-67
2021/04/14 04:33:03;;;;;;;11.38;3.08;;;5.50;99.90;;;;;;1884306;74;21191;-69
2021/04/14 04:35:31;;;;;;;14.80;3.70;;;5.50;99.90;;;;;;1877720;75;21097;-67
2021/04/14 04:38:00;;;;;;;13.28;3.27;;;5.40;99.90;;;;;;1877183;74;21595;-67
2021/04/14 04:40:29;;;;;;;14.33;3.37;;;5.40;99.90;;;;;;1880599;74;21116;-67
2021/04/14 04:42:57;;;;;;;9.05;3.47;;;5.40;99.90;;;;;;1889471;75;21101;-67
2021/04/14 04:45:27;;;;;;;13.50;3.35;;;5.40;99.90;;;;;;1886147;75;21117;-66
2021/04/14 04:47:55;;;;;;;17.75;3.75;;;5.50;99.90;;;;;;1885898;74;21095;-67
2021/04/14 04:50:27;;;;;;;9.65;3.52;;;5.50;99.90;;;;;;1883369;75;21101;-68
2021/04/14 04:52:54;;;;;;;10.25;3.80;;;5.60;99.90;;;;;;1885495;74;21140;-67
2021/04/14 04:55:22;;;;;;;11.60;3.60;;;5.60;99.90;;;;;;1888177;75;21074;-66
2021/04/14 04:57:51;;;;;;;9.48;3.15;;;5.60;99.90;;;;;;1887866;74;21187;-69
2021/04/14 05:00:19;;;;;;;11.78;3.55;;;5.60;99.90;;;;;;1886659;74;21650;-67
2021/04/14 05:02:47;;;;;;;11.12;3.08;;;5.60;99.90;;;;;;1880996;74;21085;-67
2021/04/14 05:05:18;;;;;;;10.95;3.45;;;5.60;99.90;;;;;;1884286;75;21049;-68
2021/04/14 05:07:45;;;;;;;12.43;3.40;;;5.70;99.90;;;;;;1885423;74;21140;-70
2021/04/14 05:10:14;;;;;;;13.65;3.65;;;5.70;99.90;;;;;;1879658;74;21104;-70
2021/04/14 05:12:41;;;;;;;9.13;3.42;;;5.80;99.90;;;;;;1886829;74;21574;-70
2021/04/14 05:15:10;;;;;;;13.18;3.83;;;5.90;99.90;;;;;;1886930;74;21527;-69
2021/04/14 05:17:38;;;;;;;9.18;2.95;;;5.90;99.90;;;;;;1886894;74;21089;-70
2021/04/14 05:20:06;;;;;;;9.85;3.08;;;5.90;99.90;;;;;;1887361;74;21030;-69
2021/04/14 05:22:34;;;;;;;11.05;3.40;;;5.90;99.90;;;;;;1890903;74;21085;-70
2021/04/14 05:25:02;;;;;;;15.45;4.00;;;5.90;99.90;;;;;;1884401;74;21132;-69
2021/04/14 05:27:31;;;;;;;11.90;3.77;;;6.00;99.90;;;;;;1885654;74;21035;-70
2021/04/14 05:29:58;;;;;;;14.40;4.33;;;6.00;99.90;;;;;;1885461;74;21227;-69
2021/04/14 05:32:26;;;;;;;14.90;4.87;;;6.10;99.90;;;;;;1887194;74;21042;-70
2021/04/14 05:34:53;;;;;;;17.55;4.60;;;6.10;99.90;;;;;;1872592;73;21144;-66
2021/04/14 05:37:21;;;;;;;15.70;4.37;;;6.20;99.90;;;;;;1848616;77;21110;-66
2021/04/14 05:39:52;;;;;;;7.95;3.75;;;6.20;99.90;;;;;;1848407;77;22299;-67
2021/04/14 05:42:19;;;;;;;18.27;4.30;;;6.30;99.90;;;;;;1811676;77;21058;-68
2021/04/14 05:44:47;;;;;;;11.93;3.72;;;6.40;99.90;;;;;;1840145;76;21151;-68
2021/04/14 05:47:14;;;;;;;19.62;4.28;;;6.40;99.90;;;;;;1807823;79;21066;-68
2021/04/14 05:49:42;;;;;;;16.42;4.85;;;6.40;99.90;;;;;;1837639;76;21111;-67
2021/04/14 05:52:09;;;;;;;9.85;3.67;;;6.50;99.90;;;;;;1833147;78;21557;-65
2021/04/14 05:54:37;;;;;;;10.05;3.52;;;6.50;99.90;;;;;;1832822;77;21219;-65
2021/04/14 05:57:05;;;;;;;12.73;4.50;;;6.50;99.90;;;;;;1829147;77;21104;-64
2021/04/14 05:59:32;;;;;;;11.20;4.15;;;6.50;99.90;;;;;;1839950;77;21231;-64
2021/04/14 06:02:19;;;;;;;13.22;4.50;;;6.50;99.90;;;;;;1828357;78;21536;-64
2021/04/14 06:04:46;;;;;;;17.17;5.03;;;6.60;99.90;;;;;;1835254;76;21628;-66
2021/04/14 06:07:14;;;;;;;11.03;4.60;;;6.60;99.90;;;;;;1828388;77;21064;-65
2021/04/14 06:09:42;;;;;;;15.53;4.85;;;6.70;99.90;;;;;;1830509;77;21174;-65
2021/04/14 06:12:10;;;;;;;18.35;4.83;;;6.80;99.90;;;;;;1825810;77;21131;-65
2021/04/14 06:14:38;;;;;;;14.83;4.60;;;6.90;99.90;;;;;;1826674;78;21163;-65
2021/04/14 06:17:05;;;;;;;21.95;5.28;;;6.90;99.90;;;;;;1826400;78;21147;-65
2021/04/14 06:19:34;;;;;;;15.35;5.20;;;6.90;99.90;;;;;;1824610;78;21159;-65
2021/04/14 06:22:05;;;;;;;14.53;5.10;;;7.00;99.90;;;;;;1829141;77;21619;-65
2021/04/14 06:24:33;;;;;;;18.77;5.42;;;7.10;99.90;;;;;;1829292;77;21155;-65
2021/04/14 06:27:04;;;;;;;11.63;4.53;;;7.20;99.90;;;;;;1823570;78;21067;-65
2021/04/14 06:29:30;;;;;;;15.45;5.15;;;7.20;99.90;;;;;;1828885;77;21225;-65
2021/04/14 06:31:59;;;;;;;16.52;5.03;;;7.20;99.90;;;;;;1825089;78;21240;-65
2021/04/14 06:34:29;;;;;;;14.63;4.60;;;7.20;99.90;;;;;;1827018;78;21228;-65
2021/04/14 06:36:59;;;;;;;16.20;5.47;;;7.30;99.90;;;;;;1832236;76;21056;-64
2021/04/14 06:39:34;;;;;;;14.43;4.42;;;7.30;99.90;;;;;;1827898;77;21534;-65
2021/04/14 06:42:12;;;;;;;13.13;4.33;;;7.40;99.90;;;;;;1827829;76;21137;-64
2021/04/14 06:44:37;;;;;;;13.30;4.25;;;7.40;99.90;;;;;;1826293;78;21193;-65
2021/04/14 06:47:11;;;;;;;20.40;5.37;;;7.40;99.90;;;;;;1831360;78;21110;-65
2021/04/14 06:49:47;;;;;;;14.83;4.75;;;7.30;99.90;;;;;;1828991;78;21045;-65
2021/04/14 06:52:18;;;;;;;12.68;4.55;;;7.40;99.90;;;;;;1826741;76;21035;-65
2021/04/14 06:54:51;;;;;;;17.23;5.42;;;7.40;99.90;;;;;;1830760;77;21080;-64
2021/04/14 06:57:24;;;;;;;9.88;4.00;;;7.50;99.90;;;;;;1827500;78;21118;-65
2021/04/14 06:59:57;;;;;;;10.55;2.87;;;7.50;99.90;;;;;;1827908;78;21118;-65
2021/04/14 07:02:31;;;;;;;8.85;2.92;;;7.50;99.90;;;;;;1829004;78;21067;-65
2021/04/14 07:05:11;;;;;;;8.85;2.90;;;7.60;99.90;;;;;;1825352;78;21217;-65
2021/04/14 07:07:40;;;;;;;8.83;2.30;;;7.50;99.90;;;;;;1828406;78;21135;-65
2021/04/14 07:10:13;;;;;;;5.12;2.37;;;7.50;99.90;;;;;;1827611;77;21127;-65
2021/04/14 07:12:41;;;;;;;5.72;2.40;;;7.40;99.90;;;;;;1827450;77;21718;-65
2021/04/14 07:15:10;;;;;;;5.45;2.33;;;7.30;99.90;;;;;;1822921;78;21126;-65
2021/04/14 07:17:58;;;;;;;5.55;2.52;;;7.30;99.90;;;;;;1827893;78;21131;-65
2021/04/14 07:20:32;;;;;;;9.18;2.55;;;7.40;99.90;;;;;;1825652;77;21101;-65
2021/04/14 07:23:27;;;;;;;6.05;1.82;;;7.30;99.90;;;;;;1827645;77;21052;-65
2021/04/14 07:26:18;;;;;;;7.70;2.20;;;7.40;99.90;;;;;;1826646;78;21131;-66
2021/04/14 07:29:12;;;;;;;5.42;2.12;;;7.30;99.90;;;;;;1823671;77;21091;-65
2021/04/14 07:31:45;;;;;;;7.90;2.30;;;7.30;99.90;;;;;;1826449;78;21192;-65
2021/04/14 07:34:33;;;;;;;9.08;2.12;;;7.30;99.90;;;;;;1825794;78;21099;-65
2021/04/14 07:37:10;;;;;;;9.87;2.20;;;7.30;99.90;;;;;;1825213;78;21075;-64
2021/04/14 07:39:46;;;;;;;13.30;2.40;;;7.40;99.90;;;;;;1826820;77;21202;-64
2021/04/14 07:42:25;;;;;;;8.43;2.65;;;7.50;99.90;;;;;;1824829;78;21145;-65
2021/04/14 07:45:13;;;;;;;10.20;2.47;;;7.60;99.90;;;;;;1821995;78;21121;-65
2021/04/14 07:47:46;;;;;;;8.20;2.00;;;7.80;99.90;;;;;;1829884;77;21660;-64
2021/04/14 07:50:15;;;;;;;8.65;1.62;;;7.90;99.90;;;;;;1825991;78;21106;-65
2021/04/14 07:52:42;;;;;;;7.00;1.40;;;8.00;99.90;;;;;;1825889;78;21111;-64
2021/04/14 07:55:21;;;;;;;7.40;1.77;;;8.20;99.90;;;;;;1825549;77;21083;-64
2021/04/14 07:57:50;;;;;;;9.38;2.10;;;8.30;99.90;;;;;;1826279;78;21122;-64
2021/04/14 08:00:20;;;;;;;8.30;2.40;;;8.40;99.90;;;;;;1827771;76;21306;-64
2021/04/14 08:02:49;;;;;;;11.30;2.08;;;8.50;99.90;;;;;;1828586;77;21589;-64
2021/04/14 08:05:30;;;;;;;10.78;2.67;;;8.70;99.90;;;;;;1825468;78;21217;-65
2021/04/14 08:07:57;;;;;;;10.88;2.47;;;8.80;99.90;;;;;;1828640;77;21530;-64
2021/04/14 08:10:29;;;;;;;10.35;2.33;;;8.90;99.90;;;;;;1830314;77;21628;-65
2021/04/14 08:13:04;;;;;;;7.62;2.17;;;9.00;99.90;;;;;;1823135;78;21204;-65
2021/04/14 08:15:46;;;;;;;10.13;2.33;;;9.10;99.90;;;;;;1820762;77;21158;-65
2021/04/14 08:18:19;;;;;;;20.27;2.87;;;9.20;99.90;;;;;;1827396;76;21115;-66
2021/04/14 08:20:50;;;;;;;13.13;2.00;;;9.30;99.90;;;;;;1829344;77;21075;-65
2021/04/14 08:23:26;;;;;;;13.15;2.10;;;9.40;99.90;;;;;;1825115;76;21123;-66
2021/04/14 08:25:56;;;;;;;12.15;2.25;;;9.50;99.90;;;;;;1827636;77;21232;-66
2021/04/14 08:28:37;;;;;;;11.63;2.40;;;9.60;99.90;;;;;;1824659;77;21482;-66
2021/04/14 08:31:08;;;;;;;9.35;2.45;;;9.60;99.90;;;;;;1826723;77;21690;-65
2021/04/14 08:33:36;;;;;;;7.58;2.05;;;9.70;99.90;;;;;;1820829;77;21687;-66
2021/04/14 08:36:16;;;;;;;7.58;1.70;;;9.80;99.90;;;;;;1827077;78;21138;-66
2021/04/14 08:38:44;;;;;;;9.55;2.17;;;9.90;99.90;;;;;;1825517;76;21076;-66
2021/04/14 08:41:20;;;;;;;12.15;2.47;;;10.00;99.90;;;;;;1825717;77;21099;-66
2021/04/14 08:43:51;;;;;;;13.15;2.70;;;10.00;99.90;;;;;;1825839;78;21127;-66
2021/04/14 08:46:20;;;;;;;11.08;2.70;;;10.10;99.90;;;;;;1829021;77;21538;-66
2021/04/14 08:48:51;;;;;;;19.02;3.08;;;10.20;99.90;;;;;;1828825;78;21103;-66
2021/04/14 08:51:19;;;;;;;10.10;3.00;;;10.20;99.90;;;;;;1828261;78;21146;-66
2021/04/14 08:53:49;;;;;;;12.75;3.35;;;10.30;99.90;;;;;;1819907;78;21097;-66
2021/04/14 08:56:17;;;;;;;14.73;3.10;;;10.30;99.90;;;;;;1832247;77;21103;-66
2021/04/14 08:58:45;;;;;;;11.38;2.60;;;10.40;99.90;;;;;;1825744;78;21044;-66
2021/04/14 09:01:15;;;;;;;12.80;2.87;;;10.40;99.90;;;;;;1828356;78;21039;-66
2021/04/14 09:03:44;;;;;;;10.08;2.35;;;10.40;99.90;;;;;;1829551;78;21040;-66
2021/04/14 09:06:14;;;;;;;6.83;2.10;;;10.50;99.90;;;;;;1827854;76;21118;-66
2021/04/14 09:08:45;;;;;;;10.58;1.82;;;10.40;99.90;;;;;;1824129;78;21017;-65
2021/04/14 09:11:20;;;;;;;8.93;1.82;;;10.50;99.70;;;;;;1827528;77;21124;-66
2021/04/14 09:13:54;;;;;;;8.95;2.10;;;10.50;99.00;;;;;;1826579;78;21087;-66
2021/04/14 09:16:38;;;;;;;10.05;2.70;;;10.60;99.50;;;;;;1828437;77;21099;-66
2021/04/14 09:19:09;;;;;;;6.95;1.52;;;10.70;99.60;;;;;;1827582;78;21177;-66
2021/04/14 09:21:46;;;;;;;8.28;1.67;;;10.90;99.30;;;;;;1824313;77;21112;-66
2021/04/14 09:24:33;;;;;;;7.17;1.00;;;10.90;98.00;;;;;;1825539;77;21448;-65
2021/04/14 09:27:02;;;;;;;3.02;0.85;;;10.90;98.50;;;;;;1831369;77;21115;-66
2021/04/14 09:29:54;;;;;;;2.95;0.82;;;10.70;98.60;;;;;;1825057;78;22369;-66
2021/04/14 09:32:24;;;;;;;2.77;0.50;;;10.30;99.10;;;;;;1822351;78;21560;-65
2021/04/14 09:34:52;;;;;;;3.30;0.65;;;10.00;99.60;;;;;;1819130;78;21379;-66
2021/04/14 09:37:24;;;;;;;3.05;0.85;;;9.70;99.90;;;;;;1826807;78;21162;-66
2021/04/14 09:39:55;;;;;;;2.47;0.70;;;9.40;99.90;;;;;;1827135;76;22071;-66
2021/04/14 09:42:28;;;;;;;2.67;0.60;;;9.30;99.90;;;;;;1822765;78;21616;-65
2021/04/14 09:44:58;;;;;;;3.08;0.57;;;9.10;99.90;;;;;;1830429;76;21521;-65
2021/04/14 09:47:32;;;;;;;1.40;0.55;;;9.00;99.90;;;;;;1828779;77;21048;-66
2021/04/14 09:50:03;;;;;;;4.95;0.75;;;8.90;99.90;;;;;;1826237;78;21137;-66
2021/04/14 09:52:52;;;;;;;4.08;0.60;;;8.80;99.90;;;;;;1822925;77;21232;-65
2021/04/14 09:55:33;;;;;;;6.22;1.00;;;8.80;99.90;;;;;;1819806;78;21166;-65
2021/04/14 09:58:00;;;;;;;5.33;0.72;;;8.70;99.90;;;;;;1826193;76;21174;-66
2021/04/14 10:00:30;;;;;;;4.00;1.17;;;8.70;99.90;;;;;;1825190;76;21130;-66
2021/04/14 10:03:01;;;;;;;2.77;0.82;;;8.70;99.90;;;;;;1831726;76;21188;-66
2021/04/14 10:05:30;;;;;;;5.47;1.00;;;8.80;99.90;;;;;;1822269;78;21154;-65
2021/04/14 10:08:04;;;;;;;8.48;1.22;;;8.80;99.90;;;;;;1828820;77;21118;-66
2021/04/14 10:10:40;;;;;;;4.70;1.05;;;8.90;99.90;;;;;;1831186;77;21106;-65
2021/04/14 10:13:12;;;;;;;4.65;0.80;;;9.00;99.90;;;;;;1829786;77;21091;-65
2021/04/14 10:15:41;;;;;;;;;;;9.10;99.90;;;;;;1833048;76;21620;-65
2021/04/14 10:18:11;;;;;;;8.50;0.82;;;9.20;99.90;;;;;;1826890;78;20198;-67
2021/04/14 10:20:39;;;;;;;5.80;1.02;;;9.20;99.90;;;;;;1824159;77;21185;-66
2021/04/14 10:23:12;;;;;;;8.43;1.30;;;9.30;99.90;;;;;;1828545;77;21155;-66
2021/04/14 10:25:42;;;;;;;10.48;1.55;;;9.30;99.90;;;;;;1825206;78;21231;-66
2021/04/14 10:28:16;;;;;;;7.40;1.45;;;9.10;99.90;;;;;;1829585;76;21581;-66
2021/04/14 10:30:47;;;;;;;5.00;1.22;;;9.00;99.90;;;;;;1821364;78;21051;-67
2021/04/14 10:33:25;;;;;;;9.33;1.50;;;8.90;99.90;;;;;;1824579;77;21627;-66
2021/04/14 10:35:53;;;;;;;6.92;1.40;;;8.80;99.90;;;;;;1841955;77;21159;-66
2021/04/14 10:38:32;;;;;;;7.97;1.65;;;8.60;99.90;;;;;;1828555;78;21136;-65
2021/04/14 10:41:00;;;;;;;9.88;2.58;;;8.50;99.90;;;;;;1827785;77;21114;-66
2021/04/14 10:43:29;;;;;;;8.73;1.67;;;8.50;99.90;;;;;;1827272;77;21721;-65
2021/04/14 10:46:17;;;;;;;11.63;1.87;;;8.50;99.90;;;;;;1827881;78;21087;-65
2021/04/14 10:48:47;;;;;;;11.63;1.98;;;8.50;99.90;;;;;;1826121;77;21027;-66
2021/04/14 10:51:24;;;;;;;7.12;1.60;;;8.60;99.90;;;;;;1828082;78;21179;-65
2021/04/14 10:53:54;;;;;;;7.17;2.17;;;8.80;99.90;;;;;;1827372;78;21125;-66
2021/04/14 10:56:25;;;;;;;10.25;1.62;;;9.00;99.90;;;;;;1834321;78;21148;-66
2021/04/14 10:58:53;;;;;;;11.60;2.30;;;9.30;99.90;;;;;;1824822;78;21173;-63
2021/04/14 11:01:32;;;;;;;8.93;1.70;;;9.60;99.90;;;;;;1821385;78;21609;-67
2021/04/14 11:04:18;;;;;;;10.38;1.85;;;9.70;99.90;;;;;;1842126;76;21182;-67
2021/04/14 11:06:49;;;;;;;7.22;1.20;;;10.00;99.90;;;;;;1827464;78;21594;-67
2021/04/14 11:09:19;;;;;;;6.97;1.82;;;10.10;99.90;;;;;;1827550;77;21597;-67
2021/04/14 11:11:47;;;;;;;5.08;1.20;;;10.30;99.90;;;;;;1828920;78;21122;-67
2021/04/14 11:14:18;;;;;;;6.87;1.42;;;10.50;99.90;;;;;;1831378;76;21031;-67
2021/04/14 11:16:48;;;;;;;6.42;1.60;;;10.70;99.90;;;;;;1827599;76;21078;-67
2021/04/14 11:19:18;;;;;;;5.05;1.30;;;10.70;99.90;;;;;;1822359;78;21642;-67
2021/04/14 11:21:46;;;;;;;4.30;1.30;;;10.70;99.90;;;;;;1823149;78;21164;-70
2021/04/14 11:24:17;;;;;;;3.37;1.02;;;10.70;99.90;;;;;;1827246;78;21086;-67
2021/04/14 11:26:50;;;;;;;3.02;1.22;;;10.80;99.40;;;;;;1824776;78;21165;-67
2021/04/14 11:29:27;;;;;;;3.60;0.55;;;11.00;99.10;;;;;;1824195;76;21091;-67
2021/04/14 11:31:55;;;;;;;3.12;0.57;;;11.30;97.90;;;;;;1822640;78;21106;-68
2021/04/14 11:34:34;;;;;;;3.08;0.70;;;11.50;98.90;;;;;;1828256;78;21132;-68
2021/04/14 11:37:11;;;;;;;2.30;0.60;;;11.90;95.40;;;;;;1830694;76;21106;-66
2021/04/14 11:39:56;;;;;;;3.52;0.88;;;12.10;94.90;;;;;;1825285;76;21544;-66
2021/04/14 11:42:29;;;;;;;4.10;0.62;;;12.40;96.00;;;;;;1837524;77;21173;-65
2021/04/14 11:45:00;;;;;;;4.05;0.78;;;12.50;93.30;;;;;;1840127;77;21166;-66
2021/04/14 11:47:38;;;;;;;2.72;0.53;;;12.50;92.10;;;;;;1842781;76;21799;-66
2021/04/14 11:50:14;;;;;;;3.62;0.90;;;12.40;91.30;;;;;;1843113;76;21141;-65
2021/04/14 11:52:50;;;;;;;2.85;0.70;;;12.30;92.10;;;;;;1833006;77;21056;-66
2021/04/14 11:55:24;;;;;;;4.30;0.60;;;12.20;93.00;;;;;;1835724;77;21201;-66
2021/04/14 11:57:57;;;;;;;2.08;0.62;;;12.00;93.40;;;;;;1834110;77;21137;-67
2021/04/14 12:00:40;;;;;;;4.47;0.82;;;11.90;93.60;;;;;;1793044;78;21106;-68
2021/04/14 12:03:31;;;;;;;3.12;0.80;;;11.90;94.20;;;;;;1824640;78;21097;-67
2021/04/14 12:06:00;;;;;;;3.07;0.70;;;11.80;92.80;;;;;;1826893;77;21233;-68
2021/04/14 12:08:30;;;;;;;1.77;0.50;;;11.90;91.00;;;;;;1827228;78;21047;-69
2021/04/14 12:10:59;;;;;;;1.92;0.50;;;12.30;92.60;;;;;;1828834;77;21071;-69
2021/04/14 12:13:26;;;;;;;4.25;0.90;;;12.90;91.00;;;;;;1826790;78;21112;-67
2021/04/14 12:15:54;;;;;;;4.47;0.98;;;13.30;95.40;;;;;;1824835;78;21215;-67
2021/04/14 12:18:21;;;;;;;4.12;1.17;;;13.10;95.00;;;;;;1824820;77;21212;-67
2021/04/14 12:20:49;;;;;;;6.15;1.30;;;12.90;95.10;;;;;;1823715;77;22166;-68
2021/04/14 12:23:17;;;;;;;3.87;0.95;;;12.80;95.40;;;;;;1828830;78;21161;-69
2021/04/14 12:25:44;;;;;;;5.72;1.30;;;12.40;94.60;;;;;;1827774;78;21098;-67
2021/04/14 12:28:12;;;;;;;5.33;0.93;;;12.20;95.30;;;;;;1827006;78;21215;-67
2021/04/14 12:30:39;;;;;;;3.12;0.88;;;12.00;94.40;;;;;;1827010;77;21106;-68
2021/04/14 12:33:07;;;;;;;5.30;1.22;;;12.00;95.90;;;;;;1827619;77;21172;-69
2021/04/14 12:35:34;;;;;;;3.37;0.62;;;12.10;95.40;;;;;;1827487;77;22305;-68
2021/04/14 12:38:04;;;;;;;3.67;0.78;;;12.30;94.30;;;;;;1823955;78;22183;-69
2021/04/14 12:40:33;;;;;;;2.42;0.75;;;12.60;93.50;;;;;;1830331;76;21091;-67
2021/04/14 12:43:01;;;;;;;2.50;0.78;;;12.90;94.10;;;;;;1824792;78;21102;-67
2021/04/14 12:45:49;;;;;;;3.95;0.72;;;13.30;92.90;;;;;;1822552;78;21118;-68
2021/04/14 12:48:22;;;;;;;4.00;0.80;;;13.60;91.40;;;;;;1830357;78;21171;-67
2021/04/14 12:51:07;;;;;;;4.37;0.98;;;13.90;91.30;;;;;;1828128;78;21184;-69
2021/04/14 12:53:38;;;;;;;8.38;0.70;;;13.80;90.20;;;;;;1828351;77;21047;-69
2021/04/14 12:56:06;;;;;;;4.28;0.82;;;13.90;88.60;;;;;;1825445;78;21164;-68
2021/04/14 12:58:37;;;;;;;3.70;0.95;;;13.90;89.60;;;;;;1825516;78;21195;-68
2021/04/14 13:01:05;;;;;;;6.10;0.90;;;13.90;90.10;;;;;;1827049;78;21506;-68
2021/04/14 13:03:38;;;;;;;8.68;1.20;;;13.90;90.40;;;;;;1828406;78;21055;-68
2021/04/14 13:06:27;;;;;;;4.65;1.45;;;13.90;90.50;;;;;;1829056;77;21189;-66
2021/04/14 13:08:55;;;;;;;4.62;0.75;;;13.90;90.40;;;;;;1835734;76;21106;-64